createdAt,value
2019-03-25T00:01:06.955Z,28.17
2019-03-25T00:03:37.797Z,30.30
2019-03-25T00:06:08.509Z,31.53
2019-03-25T00:08:39.294Z,30.13
2019-03-25T00:11:10.006Z,30.10
2019-03-25T00:13:40.675Z,29.53
2019-03-25T00:16:11.273Z,26.57
2019-03-25T00:18:42.088Z,26.80
2019-03-25T00:21:12.754Z,26.23
2019-03-25T00:23:43.431Z,24.63
2019-03-25T00:26:14.062Z,23.33
2019-03-25T00:28:44.727Z,25.00
2019-03-25T00:31:15.388Z,23.37
2019-03-25T00:33:46.302Z,22.27
2019-03-25T00:36:16.994Z,23.20
2019-03-25T00:38:47.774Z,21.63
2019-03-25T00:41:18.470Z,22.17
2019-03-25T00:43:49.094Z,22.07
2019-03-25T00:46:19.690Z,21.47
2019-03-25T00:48:50.408Z,20.13
2019-03-25T00:51:21.123Z,19.60
2019-03-25T00:53:51.807Z,19.80
2019-03-25T00:56:22.571Z,20.10
2019-03-25T00:58:53.318Z,20.33
2019-03-25T01:01:24.011Z,18.57
2019-03-25T01:03:54.685Z,19.17
2019-03-25T01:06:25.289Z,19.17
2019-03-25T01:08:56.194Z,17.70
2019-03-25T01:11:26.919Z,18.67
2019-03-25T01:13:57.634Z,18.33
2019-03-25T01:16:28.392Z,18.63
2019-03-25T01:18:59.010Z,17.60
2019-03-25T01:21:29.618Z,18.60
2019-03-25T01:24:00.406Z,17.30
2019-03-25T01:26:31.382Z,18.53
2019-03-25T01:29:02.075Z,19.20
2019-03-25T01:31:32.916Z,18.90
2019-03-25T01:34:03.544Z,19.03
2019-03-25T01:36:34.116Z,19.17
2019-03-25T01:39:06.573Z,18.43
2019-03-25T01:41:37.383Z,17.20
2019-03-25T01:44:08.101Z,17.40
2019-03-25T01:46:38.905Z,18.40
2019-03-25T01:49:09.540Z,16.90
2019-03-25T01:51:40.293Z,16.67
2019-03-25T01:54:10.942Z,15.87
2019-03-25T01:56:41.551Z,16.50
2019-03-25T01:59:12.261Z,16.47
2019-03-25T02:01:43.244Z,16.90
2019-03-25T02:04:13.863Z,17.53
2019-03-25T02:06:44.447Z,17.17
2019-03-25T02:09:16.285Z,17.47
2019-03-25T02:11:47.124Z,17.20
2019-03-25T02:14:17.757Z,17.13
2019-03-25T02:16:48.425Z,17.23
2019-03-25T02:19:19.086Z,17.23
2019-03-25T02:21:49.706Z,17.20
2019-03-25T02:24:20.441Z,17.20
2019-03-25T02:26:51.208Z,17.33
2019-03-25T02:29:22.144Z,17.23
2019-03-25T02:31:52.974Z,16.40
2019-03-25T02:34:23.807Z,17.13
2019-03-25T02:36:54.432Z,15.93
2019-03-25T02:39:25.264Z,15.57
2019-03-25T02:41:55.902Z,16.40
2019-03-25T02:44:26.610Z,16.70
2019-03-25T02:46:57.310Z,16.63
2019-03-25T02:49:28.212Z,15.73
2019-03-25T02:51:58.969Z,15.47
2019-03-25T02:54:29.605Z,15.67
2019-03-25T02:57:00.216Z,14.63
2019-03-25T02:59:30.987Z,15.13
2019-03-25T03:02:01.602Z,14.87
2019-03-25T03:04:32.404Z,15.03
2019-03-25T03:07:03.204Z,14.97
2019-03-25T03:09:34.187Z,15.00
2019-03-25T03:12:04.782Z,13.97
2019-03-25T03:14:35.465Z,13.40
2019-03-25T03:17:06.182Z,14.40
2019-03-25T03:19:36.884Z,14.67
2019-03-25T03:22:07.680Z,14.17
2019-03-25T03:24:38.427Z,14.20
2019-03-25T03:27:09.095Z,14.00
2019-03-25T03:29:39.783Z,13.90
2019-03-25T03:32:10.506Z,13.30
2019-03-25T03:34:41.245Z,14.57
2019-03-25T03:37:11.911Z,13.80
2019-03-25T03:39:42.586Z,13.77
2019-03-25T03:42:13.183Z,13.70
2019-03-25T03:44:44.143Z,14.10
2019-03-25T03:47:15.171Z,14.17
2019-03-25T03:49:45.796Z,13.47
2019-03-25T03:52:16.884Z,14.57
2019-03-25T03:54:47.732Z,14.07
2019-03-25T03:57:19.611Z,13.63
2019-03-25T03:59:51.004Z,14.60
2019-03-25T04:02:21.654Z,14.10
2019-03-25T04:04:52.362Z,14.27
2019-03-25T04:07:23.043Z,13.20
2019-03-25T04:09:53.802Z,14.87
2019-03-25T04:12:24.494Z,13.87
2019-03-25T04:14:55.186Z,14.60
2019-03-25T04:17:25.842Z,15.70
2019-03-25T04:19:56.640Z,14.97
2019-03-25T04:22:27.322Z,15.00
2019-03-25T04:24:57.934Z,15.93
2019-03-25T04:27:28.702Z,14.60
2019-03-25T04:29:59.433Z,15.17
2019-03-25T04:32:30.137Z,14.90
2019-03-25T04:35:00.831Z,15.20
2019-03-25T04:37:31.514Z,15.83
2019-03-25T04:40:02.155Z,15.40
2019-03-25T04:42:33.007Z,15.50
2019-03-25T04:45:03.753Z,15.47
2019-03-25T04:47:34.521Z,14.83
2019-03-25T04:50:05.533Z,14.83
2019-03-25T04:52:37.337Z,13.77
2019-03-25T04:55:08.556Z,15.00
2019-03-25T04:57:39.287Z,14.97
2019-03-25T05:00:11.929Z,15.30
2019-03-25T05:02:42.622Z,14.47
2019-03-25T05:05:13.519Z,14.10
2019-03-25T05:07:44.266Z,14.97
2019-03-25T05:10:14.978Z,16.63
2019-03-25T05:12:45.689Z,17.07
2019-03-25T05:15:16.498Z,17.73
2019-03-25T05:17:47.500Z,17.20
2019-03-25T05:20:18.207Z,16.83
2019-03-25T05:22:48.862Z,16.90
2019-03-25T05:25:19.485Z,16.43
2019-03-25T05:27:50.142Z,16.20
2019-03-25T05:30:22.922Z,14.67
2019-03-25T05:32:53.166Z,15.17
2019-03-25T05:35:23.878Z,15.87
2019-03-25T05:37:54.497Z,16.50
2019-03-25T05:40:25.193Z,15.57
2019-03-25T05:42:56.873Z,16.30
2019-03-25T05:45:27.568Z,21.97
2019-03-25T05:47:58.269Z,23.40
2019-03-25T05:50:29.074Z,22.30
2019-03-25T05:52:59.710Z,19.63
2019-03-25T05:55:30.457Z,17.93
2019-03-25T05:58:01.175Z,16.80
2019-03-25T06:00:34.421Z,16.83
2019-03-25T06:03:05.139Z,16.23
2019-03-25T06:05:37.028Z,15.90
2019-03-25T06:08:07.738Z,15.07
2019-03-25T06:10:38.529Z,16.20
2019-03-25T06:13:09.197Z,15.53
2019-03-25T06:15:39.829Z,15.47
2019-03-25T06:18:10.496Z,14.67
2019-03-25T06:20:41.125Z,15.37
2019-03-25T06:23:11.775Z,15.40
2019-03-25T06:25:42.460Z,14.60
2019-03-25T06:28:13.207Z,15.70
2019-03-25T06:30:43.870Z,12.67
2019-03-25T06:33:14.518Z,13.10
2019-03-25T06:35:45.199Z,14.03
2019-03-25T06:38:15.905Z,13.47
2019-03-25T06:40:49.122Z,13.17
2019-03-25T06:43:18.991Z,12.40
2019-03-25T06:45:49.693Z,13.37
2019-03-25T06:48:20.346Z,15.00
2019-03-25T06:50:51.203Z,14.07
2019-03-25T06:53:22.943Z,12.97
2019-03-25T06:56:12.438Z,12.73
2019-03-25T06:58:43.148Z,12.57
2019-03-25T07:01:13.962Z,14.13
2019-03-25T07:03:44.775Z,12.37
2019-03-25T07:06:15.589Z,11.13
2019-03-25T07:08:46.221Z,10.43
2019-03-25T07:11:16.962Z,11.33
2019-03-25T07:13:47.648Z,10.70
2019-03-25T07:16:18.371Z,11.17
2019-03-25T07:18:49.014Z,9.97
2019-03-25T07:21:20.617Z,10.60
2019-03-25T07:23:52.182Z,9.40
2019-03-25T07:26:22.978Z,9.57
2019-03-25T07:28:54.585Z,9.63
2019-03-25T07:31:25.486Z,9.67
2019-03-25T07:33:56.178Z,9.10
2019-03-25T07:36:26.793Z,7.60
2019-03-25T07:39:00.082Z,7.33
2019-03-25T07:41:29.942Z,6.60
2019-03-25T07:44:00.679Z,7.77
2019-03-25T07:46:31.426Z,5.67
2019-03-25T07:49:02.061Z,5.97
2019-03-25T07:51:32.761Z,5.40
2019-03-25T07:54:03.529Z,5.60
2019-03-25T07:56:34.224Z,5.33
2019-03-25T07:59:05.147Z,5.60
2019-03-25T08:01:35.956Z,6.30
2019-03-25T08:04:06.573Z,6.20
2019-03-25T08:06:37.412Z,5.70
2019-03-25T08:09:09.226Z,5.73
2019-03-25T08:11:39.974Z,4.67
2019-03-25T08:14:10.796Z,5.50
2019-03-25T08:16:41.450Z,5.30
2019-03-25T08:19:13.322Z,5.10
2019-03-25T08:21:45.243Z,4.60
2019-03-25T08:24:20.236Z,4.83
2019-03-25T08:26:50.963Z,4.30
2019-03-25T08:29:21.622Z,3.87
2019-03-25T08:31:53.190Z,4.63
2019-03-25T08:34:25.812Z,5.03
2019-03-25T08:36:56.609Z,4.63
2019-03-25T08:39:27.185Z,3.90
2019-03-25T08:41:57.991Z,4.80
2019-03-25T08:44:28.747Z,4.70
2019-03-25T08:46:59.390Z,4.70
2019-03-25T08:49:29.958Z,5.03
2019-03-25T08:52:00.726Z,4.27
2019-03-25T08:54:33.309Z,4.37
2019-03-25T08:57:04.067Z,4.37
2019-03-25T08:59:34.833Z,5.17
2019-03-25T09:02:05.633Z,4.03
2019-03-25T09:04:36.716Z,4.87
2019-03-25T09:07:09.073Z,4.20
2019-03-25T09:09:39.859Z,3.83
2019-03-25T09:12:10.517Z,3.40
2019-03-25T09:14:42.500Z,3.67
2019-03-25T09:17:13.377Z,4.13
2019-03-25T09:19:44.033Z,3.83
2019-03-25T09:22:15.074Z,4.40
2019-03-25T09:24:45.840Z,4.60
2019-03-25T09:27:18.628Z,7.77
2019-03-25T09:29:49.317Z,25.07
2019-03-25T09:32:20.129Z,3.93
2019-03-25T09:34:50.865Z,5.00
2019-03-25T09:37:21.546Z,5.00
2019-03-25T09:39:52.318Z,6.33
2019-03-25T09:42:22.916Z,8.87
2019-03-25T09:44:53.614Z,5.23
2019-03-25T09:47:24.237Z,4.60
2019-03-25T09:49:54.925Z,5.00
2019-03-25T09:52:25.608Z,5.93
2019-03-25T09:54:56.282Z,5.70
2019-03-25T09:57:27.054Z,4.77
2019-03-25T09:59:58.725Z,4.70
2019-03-25T10:02:29.733Z,4.20
2019-03-25T10:05:01.464Z,10.60
2019-03-25T10:07:32.174Z,11.80
2019-03-25T10:10:03.022Z,5.77
2019-03-25T10:12:33.818Z,11.23
2019-03-25T10:15:04.793Z,3.90
2019-03-25T10:17:35.408Z,4.13
2019-03-25T10:20:07.465Z,4.60
2019-03-25T10:22:38.543Z,4.90
2019-03-25T10:25:10.421Z,4.10
2019-03-25T10:27:41.108Z,4.63
2019-03-25T10:30:12.618Z,4.30
2019-03-25T10:32:43.404Z,4.87
2019-03-25T10:35:15.294Z,5.03
2019-03-25T10:37:46.077Z,6.80
2019-03-25T10:40:16.953Z,4.57
2019-03-25T10:42:47.650Z,4.47
2019-03-25T10:45:19.318Z,4.37
2019-03-25T10:47:49.947Z,6.23
2019-03-25T10:50:20.752Z,4.33
2019-03-25T10:52:51.527Z,5.23
2019-03-25T10:55:22.290Z,3.57
2019-03-25T10:57:53.012Z,4.97
2019-03-25T11:00:24.202Z,5.30
2019-03-25T11:02:55.063Z,4.60
2019-03-25T11:05:25.710Z,5.27
2019-03-25T11:07:57.434Z,4.00
2019-03-25T11:10:28.126Z,4.37
2019-03-25T11:12:58.982Z,4.13
2019-03-25T11:15:30.617Z,4.10
2019-03-25T11:18:01.186Z,4.90
2019-03-25T11:20:31.769Z,5.17
2019-03-25T11:23:02.675Z,3.60
2019-03-25T11:25:33.295Z,4.23
2019-03-25T11:28:04.093Z,5.23
2019-03-25T11:31:00.352Z,6.83
2019-03-25T11:33:31.084Z,4.40
2019-03-25T11:36:02.826Z,6.33
2019-03-25T11:38:33.760Z,8.70
2019-03-25T11:41:04.468Z,7.77
2019-03-25T11:43:35.090Z,8.30
2019-03-25T11:46:05.794Z,8.40
2019-03-25T11:48:36.454Z,5.63
2019-03-25T11:51:07.342Z,7.33
2019-03-25T11:53:38.223Z,6.63
2019-03-25T11:56:08.813Z,5.17
2019-03-25T11:58:39.494Z,4.43
2019-03-25T12:01:11.284Z,4.30
2019-03-25T12:03:41.922Z,4.43
2019-03-25T12:06:12.599Z,4.60
2019-03-25T12:08:43.229Z,4.43
2019-03-25T12:11:14.019Z,5.23
2019-03-25T12:13:44.709Z,5.03
2019-03-25T12:16:15.287Z,5.70
2019-03-25T12:18:45.908Z,3.93
2019-03-25T12:21:16.590Z,4.40
2019-03-25T12:23:47.250Z,4.83
2019-03-25T12:26:17.898Z,5.50
2019-03-25T12:28:48.633Z,5.40
2019-03-25T12:31:19.573Z,6.30
2019-03-25T12:33:50.249Z,5.90
2019-03-25T12:36:20.977Z,9.17
2019-03-25T12:38:51.574Z,7.07
2019-03-25T12:41:22.344Z,5.97
2019-03-25T12:43:53.054Z,4.80
2019-03-25T12:46:23.817Z,5.70
2019-03-25T12:48:54.503Z,7.67
2019-03-25T12:51:25.293Z,6.23
2019-03-25T12:53:56.176Z,6.17
2019-03-25T12:56:26.942Z,4.20
2019-03-25T12:58:57.619Z,5.07
2019-03-25T13:01:28.559Z,4.97
2019-03-25T13:03:59.573Z,5.00
2019-03-25T13:06:30.733Z,7.60
2019-03-25T13:09:01.675Z,6.23
2019-03-25T13:11:34.018Z,4.30
2019-03-25T13:14:04.971Z,4.47
2019-03-25T13:16:35.697Z,4.20
2019-03-25T13:19:06.382Z,4.83
2019-03-25T13:21:37.123Z,4.90
2019-03-25T13:24:07.930Z,4.33
2019-03-25T13:26:38.625Z,4.23
2019-03-25T13:29:09.323Z,3.93
2019-03-25T13:31:41.273Z,4.63
2019-03-25T13:34:12.122Z,4.60
2019-03-25T13:36:42.816Z,5.10
2019-03-25T13:39:13.383Z,5.80
2019-03-25T13:41:44.030Z,5.37
2019-03-25T13:44:14.653Z,5.20
2019-03-25T13:46:45.390Z,4.90
2019-03-25T13:49:16.022Z,5.40
2019-03-25T13:51:46.795Z,4.93
2019-03-25T13:54:17.453Z,6.03
2019-03-25T13:56:48.154Z,5.87
2019-03-25T13:59:18.916Z,6.43
2019-03-25T14:01:49.706Z,7.43
2019-03-25T14:04:20.410Z,6.13
2019-03-25T14:06:51.195Z,6.17
2019-03-25T14:09:22.814Z,8.10
2019-03-25T14:11:53.586Z,9.03
2019-03-25T14:14:24.164Z,14.33
2019-03-25T14:16:54.916Z,21.53
2019-03-25T14:19:25.512Z,13.80
2019-03-25T14:21:56.180Z,7.50
2019-03-25T14:24:27.380Z,9.57
2019-03-25T14:26:58.060Z,11.13
2019-03-25T14:29:28.787Z,19.03
2019-03-25T14:31:59.621Z,9.80
2019-03-25T14:34:30.377Z,9.90
2019-03-25T14:37:01.081Z,14.67
2019-03-25T14:39:31.737Z,8.03
2019-03-25T14:42:02.385Z,7.90
2019-03-25T14:44:33.078Z,10.30
2019-03-25T14:47:03.722Z,10.50
2019-03-25T14:49:34.442Z,11.07
2019-03-25T14:52:05.113Z,9.90
2019-03-25T14:54:35.806Z,11.60
2019-03-25T14:57:06.511Z,10.17
2019-03-25T14:59:37.150Z,9.67
2019-03-25T15:02:07.830Z,9.63
2019-03-25T15:04:38.529Z,7.03
2019-03-25T15:07:09.322Z,6.33
2019-03-25T15:09:39.982Z,6.80
2019-03-25T15:12:10.832Z,8.00
2019-03-25T15:14:41.686Z,8.47
2019-03-25T15:17:12.323Z,8.70
2019-03-25T15:19:42.888Z,7.80
2019-03-25T15:22:13.575Z,8.13
2019-03-25T15:24:44.513Z,8.13
2019-03-25T15:27:15.206Z,8.17
2019-03-25T15:29:46.014Z,8.63
2019-03-25T15:32:18.696Z,9.30
2019-03-25T15:34:49.449Z,9.13
2019-03-25T15:37:20.175Z,9.43
2019-03-25T15:39:50.779Z,8.37
2019-03-25T15:42:21.398Z,9.00
2019-03-25T15:44:51.995Z,9.83
2019-03-25T15:47:22.929Z,11.90
2019-03-25T15:49:53.707Z,11.97
2019-03-25T15:52:24.566Z,11.53
2019-03-25T15:54:55.354Z,11.50
2019-03-25T15:57:26.087Z,10.30
2019-03-25T15:59:56.814Z,10.60
2019-03-25T16:02:27.591Z,9.53
2019-03-25T16:04:58.158Z,13.10
2019-03-25T16:07:28.749Z,11.60
2019-03-25T16:09:59.530Z,12.20
2019-03-25T16:12:30.303Z,13.37
2019-03-25T16:15:00.903Z,14.60
2019-03-25T16:17:31.630Z,11.77
2019-03-25T16:20:02.434Z,13.43
2019-03-25T16:22:33.176Z,12.83
2019-03-25T16:25:03.983Z,14.00
2019-03-25T16:27:34.613Z,15.37
2019-03-25T16:30:06.263Z,10.20
2019-03-25T16:32:37.958Z,11.37
2019-03-25T16:35:08.821Z,12.43
2019-03-25T16:37:39.554Z,11.97
2019-03-25T16:40:10.417Z,12.60
2019-03-25T16:42:41.247Z,12.93
2019-03-25T16:45:12.818Z,11.00
2019-03-25T16:47:43.515Z,14.27
2019-03-25T16:50:14.322Z,14.87
2019-03-25T16:52:45.034Z,16.50
2019-03-25T16:55:15.657Z,16.53
2019-03-25T16:57:46.505Z,15.53
2019-03-25T17:00:26.996Z,16.03
2019-03-25T17:02:49.694Z,16.77
2019-03-25T17:05:20.574Z,14.83
2019-03-25T17:07:51.308Z,14.33
2019-03-25T17:10:22.254Z,14.27
2019-03-25T17:12:52.962Z,12.43
2019-03-25T17:15:23.653Z,11.77
2019-03-25T17:17:54.313Z,11.83
2019-03-25T17:20:25.044Z,10.40
2019-03-25T17:22:55.737Z,12.73
2019-03-25T17:25:26.580Z,11.37
2019-03-25T17:27:57.309Z,12.70
2019-03-25T17:30:27.982Z,10.10
2019-03-25T17:32:58.715Z,10.30
2019-03-25T17:35:29.417Z,12.30
2019-03-25T17:38:00.181Z,21.37
2019-03-25T17:40:31.011Z,18.57
2019-03-25T17:43:06.537Z,16.80
2019-03-25T17:45:37.169Z,19.43
2019-03-25T17:48:08.090Z,13.10
2019-03-25T17:50:38.792Z,13.03
2019-03-25T17:53:09.578Z,14.70
2019-03-25T17:55:40.451Z,15.83
2019-03-25T17:58:11.317Z,14.10
2019-03-25T18:01:18.720Z,15.80
2019-03-25T18:03:49.626Z,21.13
2019-03-25T18:06:20.286Z,20.57
2019-03-25T18:08:51.048Z,15.53
2019-03-25T18:11:22.900Z,15.00
2019-03-25T18:13:53.745Z,16.00
2019-03-25T18:16:24.428Z,19.50
2019-03-25T18:18:55.263Z,19.40
2019-03-25T18:21:26.100Z,22.00
2019-03-25T18:23:56.890Z,23.73
2019-03-25T18:26:27.875Z,24.47
2019-03-25T18:28:58.672Z,24.00
2019-03-25T18:31:29.333Z,21.20
2019-03-25T18:34:00.026Z,23.43
2019-03-25T18:36:31.934Z,26.17
2019-03-25T18:39:02.641Z,27.80
2019-03-25T18:41:33.885Z,30.17
2019-03-25T18:44:04.726Z,32.77
2019-03-25T18:46:35.447Z,39.20
2019-03-25T18:49:06.163Z,38.70
2019-03-25T18:51:36.968Z,40.30
2019-03-25T18:54:07.767Z,44.43
2019-03-25T18:56:39.490Z,56.30
2019-03-25T18:59:10.640Z,59.07
2019-03-25T19:01:41.383Z,47.63
2019-03-25T19:04:12.309Z,45.77
2019-03-25T19:06:45.713Z,37.63
2019-03-25T19:09:16.464Z,32.90
2019-03-25T19:11:47.237Z,33.27
2019-03-25T19:14:20.509Z,34.37
2019-03-25T19:16:53.125Z,35.27
2019-03-25T19:19:36.020Z,37.87
2019-03-25T19:22:18.967Z,35.60
2019-03-25T19:24:49.879Z,42.07
2019-03-25T19:27:20.648Z,47.03
2019-03-25T19:29:51.462Z,49.80
2019-03-25T19:32:22.216Z,53.10
2019-03-25T19:34:52.934Z,59.47
2019-03-25T19:37:23.970Z,63.13
2019-03-25T19:39:54.705Z,70.63
2019-03-25T19:42:25.580Z,69.33
2019-03-25T19:44:56.316Z,67.70
2019-03-25T19:47:27.007Z,55.67
2019-03-25T19:49:57.797Z,50.57
2019-03-25T19:52:28.580Z,47.77
2019-03-25T19:55:00.465Z,48.03
2019-03-25T19:57:31.268Z,46.43
2019-03-25T20:00:01.988Z,44.77
2019-03-25T20:02:34.088Z,54.10
2019-03-25T20:05:05.489Z,53.70
2019-03-25T20:07:36.355Z,56.70
2019-03-25T20:10:07.829Z,56.50
2019-03-25T20:12:38.866Z,52.23
2019-03-25T20:15:09.793Z,47.23
2019-03-25T20:17:40.510Z,46.23
2019-03-25T20:20:11.483Z,44.60
2019-03-25T20:22:42.261Z,42.93
2019-03-25T20:25:13.119Z,43.17
2019-03-25T20:27:43.874Z,44.57
2019-03-25T20:30:15.348Z,41.23
2019-03-25T20:32:46.037Z,48.17
2019-03-25T20:35:16.746Z,44.57
2019-03-25T20:37:47.408Z,45.33
2019-03-25T20:40:18.191Z,46.13
2019-03-25T20:42:48.943Z,46.00
2019-03-25T20:45:19.909Z,47.07
2019-03-25T20:47:50.619Z,50.73
2019-03-25T20:50:21.384Z,52.23
2019-03-25T20:52:52.251Z,54.73
2019-03-25T20:55:23.048Z,56.87
2019-03-25T20:57:53.882Z,60.47
2019-03-25T21:00:49.090Z,64.57
2019-03-25T21:03:20.137Z,64.90
2019-03-25T21:05:50.931Z,70.43
2019-03-25T21:08:21.660Z,72.37
2019-03-25T21:10:52.523Z,85.83
2019-03-25T21:13:23.313Z,78.57
2019-03-25T21:15:54.188Z,77.73
2019-03-25T21:18:24.989Z,68.07
2019-03-25T21:20:55.889Z,62.53
2019-03-25T21:23:26.801Z,60.97
2019-03-25T21:25:57.645Z,52.53
2019-03-25T21:28:28.425Z,52.77
2019-03-25T21:30:59.172Z,49.83
2019-03-25T21:33:30.056Z,53.13
2019-03-25T21:36:00.816Z,47.80
2019-03-25T21:38:31.641Z,48.37
2019-03-25T21:41:02.927Z,46.43
2019-03-25T21:43:33.758Z,48.13
2019-03-25T21:46:04.629Z,47.37
2019-03-25T21:48:35.616Z,47.33
2019-03-25T21:51:06.384Z,48.70
2019-03-25T21:53:37.100Z,45.83
2019-03-25T21:56:07.943Z,45.53
2019-03-25T21:58:38.661Z,44.63
2019-03-25T22:01:09.388Z,44.37
2019-03-25T22:03:40.224Z,44.03
2019-03-25T22:06:10.916Z,43.70
2019-03-25T22:08:41.674Z,42.37
2019-03-25T22:11:12.446Z,44.03
2019-03-25T22:13:43.062Z,43.97
2019-03-25T22:16:13.820Z,44.50
2019-03-25T22:18:44.507Z,44.50
2019-03-25T22:21:15.186Z,43.43
2019-03-25T22:23:45.906Z,44.03
2019-03-25T22:26:16.618Z,42.67
2019-03-25T22:28:47.382Z,41.73
2019-03-25T22:31:18.130Z,42.47
2019-03-25T22:33:48.887Z,43.97
2019-03-25T22:36:19.494Z,41.37
2019-03-25T22:38:50.149Z,41.73
2019-03-25T22:41:20.818Z,41.63
2019-03-25T22:43:51.598Z,41.70
2019-03-25T22:46:22.332Z,39.93
2019-03-25T22:48:53.003Z,40.00
2019-03-25T22:51:23.681Z,37.70
2019-03-25T22:53:54.313Z,37.47
2019-03-25T22:56:26.145Z,35.67
2019-03-25T22:58:56.859Z,34.70
2019-03-25T23:01:27.626Z,32.13
2019-03-25T23:03:58.379Z,29.67
2019-03-25T23:06:29.218Z,27.17
2019-03-25T23:08:59.951Z,26.13
2019-03-25T23:11:30.598Z,24.47
2019-03-25T23:14:01.289Z,25.37
2019-03-25T23:16:31.965Z,25.00
2019-03-25T23:19:02.704Z,23.47
2019-03-25T23:21:33.638Z,23.63
2019-03-25T23:24:04.406Z,21.97
2019-03-25T23:26:35.089Z,20.20
2019-03-25T23:29:05.858Z,21.20
2019-03-25T23:31:36.650Z,19.40
2019-03-25T23:34:07.324Z,20.93
2019-03-25T23:36:38.079Z,21.23
2019-03-25T23:39:09.053Z,20.67
2019-03-25T23:41:39.642Z,22.23
2019-03-25T23:44:10.290Z,21.57
2019-03-25T23:46:41.029Z,21.93
2019-03-25T23:49:11.818Z,22.57
2019-03-25T23:51:42.552Z,22.17
2019-03-25T23:54:14.414Z,22.57
2019-03-25T23:56:45.054Z,23.33
2019-03-25T23:59:15.785Z,23.60
